createdAt,value
2022-12-20T00:00:07.654Z,-5.15
2022-12-20T00:03:25.993Z,-5.10
2022-12-20T00:06:43.783Z,-4.97
2022-12-20T00:09:59.955Z,-4.91
2022-12-20T00:13:17.524Z,-4.89
2022-12-20T00:16:35.265Z,-4.81
2022-12-20T00:19:53.599Z,-4.81
2022-12-20T00:23:10.065Z,-4.85
2022-12-20T00:26:31.140Z,-4.81
2022-12-20T00:29:47.369Z,-4.81
2022-12-20T00:33:04.273Z,-4.83
2022-12-20T00:36:21.136Z,-4.87
2022-12-20T00:39:37.544Z,-4.83
2022-12-20T00:42:53.670Z,-4.79
2022-12-20T00:46:10.886Z,-4.75
2022-12-20T00:49:27.230Z,-4.71
2022-12-20T00:52:43.356Z,-4.68
2022-12-20T00:55:59.498Z,-4.62
2022-12-20T00:59:16.557Z,-4.56
2022-12-20T01:02:32.667Z,-4.49
2022-12-20T01:05:57.519Z,-4.46
2022-12-20T01:09:13.836Z,-4.40
2022-12-20T01:12:30.164Z,-4.34
2022-12-20T01:15:47.563Z,-4.31
2022-12-20T01:19:04.638Z,-4.23
2022-12-20T01:22:20.684Z,-4.17
2022-12-20T01:25:36.953Z,-4.11
2022-12-20T01:28:56.914Z,-4.05
2022-12-20T01:32:13.120Z,-3.97
2022-12-20T01:35:29.362Z,-3.92
2022-12-20T01:38:45.798Z,-3.88
2022-12-20T01:42:01.796Z,-3.86
2022-12-20T01:45:29.069Z,-3.81
2022-12-20T01:48:45.837Z,-3.77
2022-12-20T01:52:06.398Z,-3.79
2022-12-20T01:55:27.700Z,-3.79
2022-12-20T01:58:47.204Z,-3.74
2022-12-20T02:02:02.300Z,-3.69
2022-12-20T02:05:19.933Z,-3.66
2022-12-20T02:08:36.290Z,-3.64
2022-12-20T02:12:05.110Z,-3.60
2022-12-20T02:15:45.758Z,-3.58
2022-12-20T02:19:06.207Z,-3.57
2022-12-20T02:22:32.209Z,-3.61
2022-12-20T02:26:00.978Z,-3.68
2022-12-20T02:29:29.605Z,-3.68
2022-12-20T02:32:53.308Z,-3.66
2022-12-20T02:36:10.944Z,-3.69
2022-12-20T02:39:27.531Z,-3.72
2022-12-20T02:42:43.831Z,-3.64
2022-12-20T02:46:01.497Z,-3.60
2022-12-20T02:49:22.605Z,-3.57
2022-12-20T02:52:42.672Z,-3.57
2022-12-20T02:56:04.883Z,-3.53
2022-12-20T02:59:26.283Z,-3.46
2022-12-20T03:02:54.522Z,-3.47
2022-12-20T03:06:12.819Z,-3.44
2022-12-20T03:09:28.878Z,-3.36
2022-12-20T03:12:45.314Z,-3.29
2022-12-20T03:16:01.491Z,-3.27
2022-12-20T03:19:17.889Z,-3.31
2022-12-20T03:22:34.376Z,-3.33
2022-12-20T03:25:50.742Z,-3.36
2022-12-20T03:29:23.833Z,-3.39
2022-12-20T03:32:40.670Z,-3.39
2022-12-20T03:35:57.011Z,-3.42
2022-12-20T03:39:13.436Z,-3.42
2022-12-20T03:42:29.652Z,-3.36
2022-12-20T03:45:46.569Z,-3.31
2022-12-20T03:49:02.738Z,-3.26
2022-12-20T03:52:21.009Z,-3.32
2022-12-20T03:55:37.711Z,-3.30
2022-12-20T03:58:54.147Z,-3.23
2022-12-20T04:02:10.472Z,-3.19
2022-12-20T04:05:27.468Z,-3.16
2022-12-20T04:08:44.445Z,-3.15
2022-12-20T04:12:02.438Z,-3.16
2022-12-20T04:15:20.374Z,-3.24
2022-12-20T04:18:38.227Z,-3.21
2022-12-20T04:22:00.864Z,-3.16
2022-12-20T04:25:16.313Z,-3.20
2022-12-20T04:28:32.501Z,-3.26
2022-12-20T04:31:49.751Z,-3.36
2022-12-20T04:35:05.904Z,-3.38
2022-12-20T04:38:24.485Z,-3.43
2022-12-20T04:41:40.794Z,-3.58
2022-12-20T04:44:59.364Z,-3.67
2022-12-20T04:48:54.559Z,-3.71
2022-12-20T04:51:35.983Z,-3.69
2022-12-20T04:54:54.247Z,-3.69
2022-12-20T04:58:11.974Z,-3.80
2022-12-20T05:01:29.341Z,-3.82
2022-12-20T05:04:45.816Z,-3.91
2022-12-20T05:08:04.292Z,-3.85
2022-12-20T05:11:20.783Z,-3.78
2022-12-20T05:14:37.806Z,-3.69
2022-12-20T05:17:56.128Z,-3.65
2022-12-20T05:21:27.141Z,-3.58
2022-12-20T05:25:08.755Z,-3.58
2022-12-20T05:28:26.502Z,-3.50
2022-12-20T05:31:43.003Z,-3.28
2022-12-20T05:34:59.341Z,-3.23
2022-12-20T05:38:16.346Z,-3.21
2022-12-20T05:41:33.825Z,-3.14
2022-12-20T05:44:50.605Z,-3.05
2022-12-20T05:48:08.335Z,-2.97
2022-12-20T05:51:26.375Z,-2.96
2022-12-20T05:54:50.022Z,-2.94
2022-12-20T05:58:08.019Z,-2.94
2022-12-20T06:01:25.898Z,-2.90
2022-12-20T06:04:44.676Z,-2.89
2022-12-20T06:08:05.707Z,-2.94
2022-12-20T06:11:29.655Z,-2.88
2022-12-20T06:14:43.951Z,-2.83
2022-12-20T06:18:01.457Z,-2.77
2022-12-20T06:21:17.648Z,-2.74
2022-12-20T06:24:34.373Z,-2.71
2022-12-20T06:27:50.814Z,-2.70
2022-12-20T06:31:08.236Z,-2.70
2022-12-20T06:34:29.674Z,-2.66
2022-12-20T06:37:46.119Z,-2.62
2022-12-20T06:41:02.552Z,-2.55
2022-12-20T06:44:20.255Z,-2.43
2022-12-20T06:47:38.505Z,-2.35
2022-12-20T06:50:58.207Z,-2.30
2022-12-20T06:54:17.969Z,-2.25
2022-12-20T06:57:34.159Z,-2.18
2022-12-20T07:00:50.418Z,-2.16
2022-12-20T07:04:06.649Z,-2.12
2022-12-20T07:07:23.792Z,-2.04
2022-12-20T07:10:41.625Z,-1.99
2022-12-20T07:14:02.083Z,-1.95
2022-12-20T07:17:18.883Z,-1.95
2022-12-20T07:20:35.156Z,-1.96
2022-12-20T07:23:51.486Z,-1.93
2022-12-20T07:27:08.941Z,-1.93
2022-12-20T07:30:26.380Z,-1.93
2022-12-20T07:33:42.943Z,-1.88
2022-12-20T07:37:00.270Z,-1.89
2022-12-20T07:40:22.382Z,-1.96
2022-12-20T07:43:39.001Z,-2.00
2022-12-20T07:46:57.536Z,-2.00
2022-12-20T07:50:16.595Z,-2.09
2022-12-20T07:53:37.068Z,-2.02
2022-12-20T07:56:57.583Z,-1.97
2022-12-20T08:00:19.487Z,-2.06
2022-12-20T08:03:51.860Z,-2.05
2022-12-20T08:07:10.192Z,-1.94
2022-12-20T08:10:27.494Z,-1.93
2022-12-20T08:13:46.888Z,-1.98
2022-12-20T08:17:05.679Z,-2.00
2022-12-20T08:20:23.327Z,-1.83
2022-12-20T08:23:41.350Z,-1.60
2022-12-20T08:26:58.690Z,-1.41
2022-12-20T08:30:17.795Z,-1.20
2022-12-20T08:33:34.326Z,-1.03
2022-12-20T08:36:50.600Z,-0.85
2022-12-20T08:40:10.630Z,-0.76
2022-12-20T08:43:26.847Z,-0.71
2022-12-20T08:46:43.916Z,-0.61
2022-12-20T08:50:01.941Z,-0.56
2022-12-20T08:53:18.324Z,-0.53
2022-12-20T08:56:34.616Z,-0.41
2022-12-20T08:59:52.897Z,-0.36
2022-12-20T09:03:10.773Z,-0.23
2022-12-20T09:06:30.653Z,-0.10
2022-12-20T09:09:48.783Z,0.07
2022-12-20T09:13:04.942Z,0.09
2022-12-20T09:16:24.916Z,0.20
2022-12-20T09:19:41.452Z,0.28
2022-12-20T09:22:58.192Z,0.25
2022-12-20T09:26:20.853Z,0.42
2022-12-20T09:29:41.530Z,0.40
2022-12-20T09:33:08.896Z,0.53
2022-12-20T09:36:22.756Z,0.54
2022-12-20T09:39:39.445Z,0.53
2022-12-20T09:42:59.017Z,0.63
2022-12-20T09:46:16.559Z,0.68
2022-12-20T09:49:39.477Z,0.79
2022-12-20T09:53:18.360Z,0.86
2022-12-20T09:56:36.087Z,0.96
2022-12-20T09:59:54.057Z,1.09
2022-12-20T10:03:12.318Z,1.20
2022-12-20T10:06:38.196Z,1.23
2022-12-20T10:10:05.471Z,1.22
2022-12-20T10:13:31.669Z,1.23
2022-12-20T10:16:51.336Z,1.28
2022-12-20T10:20:38.867Z,1.34
2022-12-20T10:24:00.384Z,1.40
2022-12-20T10:27:23.752Z,1.41
2022-12-20T10:30:42.143Z,1.27
2022-12-20T10:33:58.579Z,1.37
2022-12-20T10:37:25.008Z,1.34
2022-12-20T10:44:09.929Z,1.40
2022-12-20T10:47:44.059Z,1.55
2022-12-20T10:51:08.387Z,1.61
2022-12-20T10:54:31.516Z,1.56
2022-12-20T10:57:50.407Z,1.61
2022-12-20T11:01:20.290Z,1.67
2022-12-20T11:04:41.181Z,1.71
2022-12-20T11:11:29.166Z,1.76
2022-12-20T11:14:47.791Z,1.84
2022-12-20T11:18:10.222Z,1.84
2022-12-20T11:21:35.619Z,1.87
2022-12-20T11:24:58.645Z,1.83
2022-12-20T11:28:32.193Z,1.85
2022-12-20T11:31:57.605Z,1.76
2022-12-20T11:35:19.431Z,1.75
2022-12-20T11:38:47.893Z,1.80
2022-12-20T11:42:10.447Z,1.72
2022-12-20T11:45:33.089Z,1.74
2022-12-20T11:49:26.996Z,1.61
2022-12-20T11:52:49.382Z,1.60
2022-12-20T11:56:10.841Z,1.61
2022-12-20T11:59:33.584Z,1.59
2022-12-20T12:02:58.468Z,1.52
2022-12-20T12:06:20.195Z,1.37
2022-12-20T12:09:41.163Z,1.23
2022-12-20T12:13:03.173Z,1.21
2022-12-20T12:16:24.223Z,1.23
2022-12-20T12:19:43.720Z,1.13
2022-12-20T12:23:00.430Z,1.08
2022-12-20T12:26:23.874Z,1.13
2022-12-20T12:29:41.787Z,1.21
2022-12-20T12:33:03.906Z,1.26
2022-12-20T12:40:06.484Z,1.24
2022-12-20T12:43:57.688Z,1.28
2022-12-20T12:47:19.698Z,1.27
2022-12-20T12:55:51.307Z,1.38
2022-12-20T12:59:54.279Z,1.34
2022-12-20T13:03:16.009Z,1.38
2022-12-20T13:07:06.547Z,1.35
2022-12-20T13:11:11.387Z,1.34
2022-12-20T13:14:57.370Z,1.27
2022-12-20T13:18:32.032Z,1.28
2022-12-20T13:21:53.532Z,1.28
2022-12-20T13:25:15.439Z,1.29
2022-12-20T13:28:54.142Z,1.29
2022-12-20T13:32:11.152Z,1.25
2022-12-20T13:36:06.166Z,1.21
2022-12-20T13:39:44.681Z,1.20
2022-12-20T13:43:04.713Z,1.16
2022-12-20T13:46:32.293Z,1.09
2022-12-20T13:49:51.190Z,1.04
2022-12-20T13:56:50.589Z,1.03
2022-12-20T14:00:17.004Z,1.11
2022-12-20T14:03:37.128Z,1.13
2022-12-20T14:06:57.837Z,1.13
2022-12-20T14:10:26.332Z,1.10
2022-12-20T14:13:42.997Z,1.09
2022-12-20T14:17:02.704Z,1.07
2022-12-20T14:20:29.737Z,1.09
2022-12-20T14:27:20.943Z,0.93
2022-12-20T14:30:45.439Z,0.90
2022-12-20T14:34:12.127Z,0.83
2022-12-20T14:40:53.922Z,0.80
2022-12-20T14:44:22.289Z,0.79
2022-12-20T14:47:40.693Z,0.73
2022-12-20T14:51:05.438Z,0.73
2022-12-20T14:57:46.227Z,0.70
2022-12-20T15:01:22.192Z,0.69
2022-12-20T15:04:43.014Z,0.63
2022-12-20T15:11:23.281Z,0.54
2022-12-20T15:14:43.940Z,0.56
2022-12-20T15:18:00.244Z,0.55
2022-12-20T15:21:21.624Z,0.58
2022-12-20T15:24:38.255Z,0.55
2022-12-20T15:27:54.427Z,0.53
2022-12-20T15:31:11.396Z,0.57
2022-12-20T15:34:33.015Z,0.58
2022-12-20T15:41:20.385Z,0.64
2022-12-20T15:44:39.168Z,0.65
2022-12-20T15:48:04.242Z,0.64
2022-12-20T15:51:30.130Z,0.65
2022-12-20T15:58:01.525Z,0.60
2022-12-20T16:01:24.780Z,0.55
2022-12-20T16:04:41.302Z,0.55
2022-12-20T16:11:22.052Z,0.61
2022-12-20T16:14:38.359Z,0.63
2022-12-20T16:18:01.521Z,0.63
2022-12-20T16:21:28.065Z,0.63
2022-12-20T16:27:59.860Z,0.55
2022-12-20T16:31:25.343Z,0.51
2022-12-20T16:34:43.160Z,0.47
2022-12-20T16:41:22.776Z,0.56
2022-12-20T16:44:40.978Z,0.60
2022-12-20T16:47:58.465Z,0.59
2022-12-20T16:51:30.050Z,0.63
2022-12-20T16:58:08.438Z,0.64
2022-12-20T17:01:28.774Z,0.63
2022-12-20T17:04:47.721Z,0.64
2022-12-20T17:11:29.838Z,0.68
2022-12-20T17:14:47.034Z,0.67
2022-12-20T17:18:05.392Z,0.68
2022-12-20T17:26:11.116Z,0.66
2022-12-20T17:29:27.768Z,0.52
2022-12-20T17:32:43.999Z,0.43
2022-12-20T17:36:00.351Z,0.33
2022-12-20T17:42:32.834Z,0.35
2022-12-20T17:45:49.331Z,0.33
2022-12-20T17:49:06.455Z,0.29
2022-12-20T17:55:39.216Z,0.26
2022-12-20T17:58:55.772Z,0.11
2022-12-20T18:02:17.822Z,0.11
2022-12-20T18:05:34.602Z,0.19
2022-12-20T18:12:07.258Z,0.28
2022-12-20T18:15:24.661Z,0.35
2022-12-20T18:18:41.156Z,0.31
2022-12-20T18:21:58.918Z,0.30
2022-12-20T18:28:30.622Z,0.25
2022-12-20T18:31:47.478Z,0.25
2022-12-20T18:35:03.876Z,0.35
2022-12-20T18:41:38.696Z,0.39
2022-12-20T18:44:55.040Z,0.42
2022-12-20T18:48:12.660Z,0.46
2022-12-20T18:51:30.615Z,0.48
2022-12-20T18:58:03.297Z,0.61
2022-12-20T19:01:24.972Z,0.62
2022-12-20T19:04:41.604Z,0.60
2022-12-20T19:11:19.072Z,0.65
2022-12-20T19:14:35.716Z,0.67
2022-12-20T19:17:52.267Z,0.68
2022-12-20T19:21:18.447Z,0.66
2022-12-20T19:27:52.018Z,0.67
2022-12-20T19:31:21.505Z,0.68
2022-12-20T19:34:34.717Z,0.70
2022-12-20T19:41:07.050Z,0.74
2022-12-20T19:44:23.447Z,0.71
2022-12-20T19:47:39.599Z,0.72
2022-12-20T19:50:55.691Z,0.77
2022-12-20T19:57:28.240Z,0.76
2022-12-20T20:00:44.469Z,0.77
2022-12-20T20:04:02.596Z,0.76
2022-12-20T20:07:19.270Z,0.72
2022-12-20T20:13:51.059Z,0.60
2022-12-20T20:17:07.268Z,0.60
2022-12-20T20:20:24.354Z,0.66
2022-12-20T20:23:42.014Z,0.67
2022-12-20T20:26:58.344Z,0.64
2022-12-20T20:30:17.424Z,0.62
2022-12-20T20:33:34.970Z,0.63
2022-12-20T20:36:51.597Z,0.48
2022-12-20T20:40:08.573Z,0.38
2022-12-20T20:43:27.453Z,0.33
2022-12-20T20:46:45.755Z,0.31
2022-12-20T20:50:02.130Z,0.33
2022-12-20T20:56:33.873Z,0.22
2022-12-20T20:59:50.447Z,0.10
2022-12-20T21:03:07.495Z,0.04
2022-12-20T21:06:39.972Z,0.02
2022-12-20T21:13:01.119Z,-0.05
2022-12-20T21:16:21.265Z,-0.13
2022-12-20T21:19:38.067Z,-0.19
2022-12-20T21:27:09.908Z,-0.27
2022-12-20T21:30:26.520Z,-0.37
2022-12-20T21:33:43.128Z,-0.36
2022-12-20T21:36:59.429Z,-0.36
2022-12-20T21:40:19.132Z,-0.54
2022-12-20T21:43:35.716Z,-0.59
2022-12-20T21:46:52.042Z,-0.57
2022-12-20T21:50:08.350Z,-0.60
2022-12-20T21:56:42.107Z,-0.64
2022-12-20T21:59:58.349Z,-0.61
2022-12-20T22:03:14.972Z,-0.58
2022-12-20T22:06:32.465Z,-0.56
2022-12-20T22:13:03.814Z,-0.71
2022-12-20T22:16:26.232Z,-0.64
2022-12-20T22:19:42.636Z,-0.70
2022-12-20T22:22:59.310Z,-0.60
2022-12-20T22:26:39.658Z,-0.56
2022-12-20T22:29:59.647Z,-0.61
2022-12-20T22:33:15.841Z,-0.78
2022-12-20T22:36:32.821Z,-0.98
2022-12-20T22:39:49.980Z,-1.00
2022-12-20T22:43:06.189Z,-1.01
2022-12-20T22:49:57.173Z,-1.12
2022-12-20T22:57:39.223Z,-1.35
2022-12-20T23:00:55.992Z,-1.54
2022-12-20T23:04:13.583Z,-1.68
2022-12-20T23:07:30.366Z,-1.81
2022-12-20T23:11:02.401Z,-1.75
2022-12-20T23:14:37.873Z,-1.79
2022-12-20T23:17:54.035Z,-1.84
2022-12-20T23:21:24.089Z,-1.90
2022-12-20T23:24:40.132Z,-1.95
2022-12-20T23:27:57.653Z,-1.97
2022-12-20T23:31:15.857Z,-1.83
2022-12-20T23:34:32.524Z,-1.62
2022-12-20T23:37:48.911Z,-1.48
2022-12-20T23:41:05.412Z,-1.37
2022-12-20T23:44:21.480Z,-1.27
2022-12-20T23:47:38.751Z,-1.22
2022-12-20T23:51:01.899Z,-1.18
2022-12-20T23:57:36.367Z,-1.08
